< < Back
Terminal Aerodrome Forecast


Current Version              Previous Versions:   1  2  3  4  5  6  7  8  9  

Terminal Aerodrome Forecast

744
FTUS44 KOHX 280522
TAFCSV
TAF
KCSV 280522Z 2806/2906 23004KT P6SM SCT040 BKN060
     FM280900 21003KT 6SM BR BKN025 OVC050
     FM281500 22006KT 4SM -SHRA BR BKN007 OVC015
     FM282000 24008KT 2SM TSRA OVC015CB
     FM290200 25006KT P6SM OVC025=

Latest METAR

282
SAUS70 KWBC 281600 RRI
MTRCSV
METAR KCSV 281553Z AUTO VRB04KT 10SM FEW023 BKN045 OVC055 26/20 A3001
RMK AO2 SLP138 T02560200


USA.gov is the U.S. government's official web portal to all federal, state and local government web resources and services.